createdAt,value
2019-02-25T00:00:57.698Z,89.50
2019-02-25T00:02:59.625Z,89.40
2019-02-25T00:05:01.550Z,89.20
2019-02-25T00:07:03.379Z,89.40
2019-02-25T00:09:05.644Z,89.40
2019-02-25T00:11:07.365Z,89.40
2019-02-25T00:13:09.194Z,89.60
2019-02-25T00:15:11.111Z,89.70
2019-02-25T00:17:12.815Z,89.60
2019-02-25T00:19:14.555Z,89.90
2019-02-25T00:21:16.265Z,90.10
2019-02-25T00:23:17.990Z,90.00
2019-02-25T00:25:19.732Z,89.80
2019-02-25T00:27:21.461Z,90.00
2019-02-25T00:29:23.182Z,90.10
2019-02-25T00:31:25.022Z,89.00
2019-02-25T00:33:26.754Z,89.10
2019-02-25T00:35:28.464Z,89.80
2019-02-25T00:37:30.421Z,90.30
2019-02-25T00:39:32.145Z,91.30
2019-02-25T00:41:33.858Z,91.80
2019-02-25T00:43:35.589Z,92.10
2019-02-25T00:45:37.442Z,92.10
2019-02-25T00:47:39.157Z,92.70
2019-02-25T00:49:40.896Z,93.10
2019-02-25T00:51:42.606Z,93.30
2019-02-25T00:53:44.417Z,93.20
2019-02-25T00:55:46.184Z,92.90
2019-02-25T00:57:47.891Z,92.40
2019-02-25T00:59:49.601Z,91.90
2019-02-25T01:01:51.506Z,91.20
2019-02-25T01:03:53.331Z,90.60
2019-02-25T01:05:55.158Z,90.20
2019-02-25T01:07:57.013Z,89.30
2019-02-25T01:09:58.746Z,89.50
2019-02-25T01:12:00.480Z,89.50
2019-02-25T01:14:02.549Z,90.70
2019-02-25T01:16:04.355Z,91.70
2019-02-25T01:18:06.194Z,92.30
2019-02-25T01:20:08.179Z,93.20
2019-02-25T01:22:09.882Z,93.70
2019-02-25T01:24:11.678Z,94.30
2019-02-25T01:26:13.830Z,94.90
2019-02-25T01:28:15.522Z,94.80
2019-02-25T01:30:18.146Z,94.60
2019-02-25T01:32:19.890Z,93.80
2019-02-25T01:34:21.594Z,93.80
2019-02-25T01:36:23.297Z,93.00
2019-02-25T01:38:25.015Z,92.50
2019-02-25T01:40:26.727Z,91.90
2019-02-25T01:42:28.562Z,91.70
2019-02-25T01:44:30.275Z,91.60
2019-02-25T01:46:32.008Z,91.80
2019-02-25T01:48:33.746Z,92.30
2019-02-25T01:50:35.444Z,92.40
2019-02-25T01:52:37.179Z,93.00
2019-02-25T01:54:38.885Z,93.30
2019-02-25T01:56:40.715Z,93.30
2019-02-25T01:58:42.425Z,93.20
2019-02-25T02:00:44.237Z,94.00
2019-02-25T02:02:45.940Z,94.50
2019-02-25T02:04:47.857Z,94.20
2019-02-25T02:06:49.573Z,93.90
2019-02-25T02:08:51.280Z,94.60
2019-02-25T02:10:53.014Z,95.70
2019-02-25T02:12:54.709Z,96.30
2019-02-25T02:14:56.419Z,96.30
2019-02-25T02:16:58.161Z,96.10
2019-02-25T02:18:59.868Z,95.90
2019-02-25T02:21:01.561Z,95.30
2019-02-25T02:23:03.604Z,94.70
2019-02-25T02:25:05.673Z,94.40
2019-02-25T02:27:07.593Z,93.70
2019-02-25T02:29:09.293Z,93.90
2019-02-25T02:31:11.110Z,94.90
2019-02-25T02:33:12.802Z,95.00
2019-02-25T02:35:14.606Z,95.10
2019-02-25T02:37:16.347Z,94.80
2019-02-25T02:39:18.053Z,94.50
2019-02-25T02:41:19.766Z,94.50
2019-02-25T02:43:21.497Z,94.70
2019-02-25T02:45:29.948Z,94.80
2019-02-25T02:47:40.843Z,94.60
2019-02-25T02:49:42.557Z,94.80
2019-02-25T02:51:44.299Z,95.10
2019-02-25T02:53:45.998Z,95.00
2019-02-25T02:55:47.690Z,95.20
2019-02-25T02:57:49.470Z,95.10
2019-02-25T02:59:51.279Z,94.60
2019-02-25T03:01:52.978Z,94.90
2019-02-25T03:03:54.697Z,94.90
2019-02-25T03:05:56.491Z,94.70
2019-02-25T03:08:17.829Z,94.60
2019-02-25T03:10:19.668Z,94.80
2019-02-25T03:12:21.424Z,98.00
2019-02-25T03:14:23.133Z,96.90
2019-02-25T03:16:24.885Z,95.10
2019-02-25T03:18:26.719Z,92.90
2019-02-25T03:20:28.487Z,91.40
2019-02-25T03:22:30.217Z,91.70
2019-02-25T03:24:31.930Z,91.30
2019-02-25T03:26:33.638Z,91.60
2019-02-25T03:28:35.436Z,91.70
2019-02-25T03:30:37.155Z,92.00
2019-02-25T03:32:38.874Z,90.70
2019-02-25T03:34:40.585Z,90.30
2019-02-25T03:36:42.437Z,90.90
2019-02-25T03:38:44.167Z,91.30
2019-02-25T03:40:45.963Z,91.90
2019-02-25T03:42:47.847Z,91.70
2019-02-25T03:44:49.597Z,91.10
2019-02-25T03:46:51.374Z,91.20
2019-02-25T03:48:53.082Z,92.20
2019-02-25T03:50:54.826Z,92.50
2019-02-25T03:52:56.666Z,92.30
2019-02-25T03:54:58.654Z,92.10
2019-02-25T03:57:00.673Z,92.10
2019-02-25T03:59:02.584Z,92.20
2019-02-25T04:01:04.506Z,92.10
2019-02-25T04:03:06.432Z,92.70
2019-02-25T04:05:08.344Z,92.30
2019-02-25T04:07:10.061Z,92.20
2019-02-25T04:09:11.782Z,91.90
2019-02-25T04:11:13.698Z,91.80
2019-02-25T04:13:15.526Z,92.20
2019-02-25T04:15:21.278Z,92.20
2019-02-25T04:17:23.009Z,92.50
2019-02-25T04:19:24.833Z,92.50
2019-02-25T04:21:26.665Z,92.40
2019-02-25T04:23:28.469Z,92.90
2019-02-25T04:25:30.177Z,93.70
2019-02-25T04:27:31.979Z,94.90
2019-02-25T04:29:33.811Z,95.70
2019-02-25T04:31:35.520Z,96.30
2019-02-25T04:33:37.689Z,96.00
2019-02-25T04:35:39.405Z,96.40
2019-02-25T04:37:41.314Z,97.10
2019-02-25T04:39:43.029Z,97.60
2019-02-25T04:41:44.836Z,97.60
2019-02-25T04:43:46.578Z,97.70
2019-02-25T04:45:48.292Z,97.70
2019-02-25T04:47:49.981Z,97.70
2019-02-25T04:49:51.685Z,97.60
2019-02-25T04:51:53.431Z,97.90
2019-02-25T04:53:55.150Z,97.90
2019-02-25T04:55:56.857Z,98.20
2019-02-25T04:57:58.577Z,98.30
2019-02-25T05:00:00.368Z,98.30
2019-02-25T05:02:02.400Z,98.30
2019-02-25T05:04:04.558Z,98.30
2019-02-25T05:06:06.263Z,98.30
2019-02-25T05:08:07.963Z,98.30
2019-02-25T05:10:10.888Z,98.30
2019-02-25T05:12:12.904Z,98.30
2019-02-25T05:14:14.604Z,98.30
2019-02-25T05:16:16.322Z,98.30
2019-02-25T05:18:18.058Z,98.30
2019-02-25T05:20:20.097Z,98.30
2019-02-25T05:22:21.801Z,98.30
2019-02-25T05:24:23.509Z,98.30
2019-02-25T05:26:25.234Z,98.30
2019-02-25T05:28:27.031Z,98.20
2019-02-25T05:30:28.830Z,98.30
2019-02-25T05:32:30.522Z,98.30
2019-02-25T05:34:32.330Z,98.30
2019-02-25T05:36:34.335Z,98.30
2019-02-25T05:38:36.136Z,98.20
2019-02-25T05:40:38.061Z,98.20
2019-02-25T05:42:41.169Z,98.30
2019-02-25T05:44:42.877Z,98.20
2019-02-25T05:46:44.602Z,98.20
2019-02-25T05:48:46.295Z,97.90
2019-02-25T05:50:49.588Z,97.70
2019-02-25T05:52:51.428Z,97.90
2019-02-25T05:54:53.133Z,97.60
2019-02-25T05:56:54.941Z,97.40
2019-02-25T05:58:56.845Z,97.20
2019-02-25T06:00:58.821Z,97.60
2019-02-25T06:03:00.680Z,98.10
2019-02-25T06:05:02.645Z,97.60
2019-02-25T06:07:04.345Z,97.50
2019-02-25T06:09:06.173Z,97.90
2019-02-25T06:11:07.894Z,98.00
2019-02-25T06:13:09.594Z,98.00
2019-02-25T06:15:12.604Z,98.00
2019-02-25T06:17:14.305Z,97.90
2019-02-25T06:19:16.077Z,97.90
2019-02-25T06:21:17.785Z,97.90
2019-02-25T06:23:19.717Z,97.90
2019-02-25T06:25:21.568Z,98.00
2019-02-25T06:27:30.471Z,97.90
2019-02-25T06:29:26.866Z,98.20
2019-02-25T06:31:28.578Z,98.30
2019-02-25T06:33:34.133Z,98.30
2019-02-25T06:35:35.887Z,98.30
2019-02-25T06:37:37.590Z,98.30
2019-02-25T06:39:39.289Z,98.30
2019-02-25T06:41:41.152Z,98.30
2019-02-25T06:43:42.844Z,98.30
2019-02-25T06:45:44.535Z,98.10
2019-02-25T06:47:46.249Z,97.00
2019-02-25T06:49:47.952Z,96.50
2019-02-25T06:51:49.652Z,96.60
2019-02-25T06:53:51.557Z,96.00
2019-02-25T06:55:53.254Z,96.20
2019-02-25T06:57:54.948Z,96.40
2019-02-25T06:59:56.662Z,96.00
2019-02-25T07:01:58.383Z,95.80
2019-02-25T07:04:14.406Z,95.20
2019-02-25T07:06:20.508Z,94.50
2019-02-25T07:08:38.521Z,94.40
2019-02-25T07:11:08.791Z,94.50
2019-02-25T07:13:29.025Z,94.20
2019-02-25T07:15:41.222Z,94.00
2019-02-25T07:18:00.281Z,93.90
2019-02-25T07:20:24.366Z,93.20
2019-02-25T07:22:39.063Z,92.70
2019-02-25T07:24:56.950Z,92.70
2019-02-25T07:27:22.453Z,92.30
2019-02-25T07:29:33.249Z,91.80
2019-02-25T07:31:50.786Z,91.50
2019-02-25T07:34:18.093Z,91.60
2019-02-25T07:36:45.528Z,90.70
2019-02-25T07:39:12.537Z,90.70
2019-02-25T07:41:31.158Z,90.30
2019-02-25T07:43:47.338Z,89.80
2019-02-25T07:46:00.081Z,89.20
2019-02-25T07:48:13.270Z,89.50
2019-02-25T07:50:36.625Z,88.70
2019-02-25T07:52:50.191Z,88.10
2019-02-25T07:55:26.676Z,88.60
2019-02-25T07:57:36.065Z,88.40
2019-02-25T07:59:46.221Z,88.10
2019-02-25T08:02:12.683Z,88.10
2019-02-25T08:04:39.676Z,87.20
2019-02-25T08:06:59.507Z,86.40
2019-02-25T08:09:26.724Z,85.90
2019-02-25T08:11:57.000Z,85.90
2019-02-25T08:14:20.514Z,85.40
2019-02-25T08:16:41.522Z,84.40
2019-02-25T08:19:05.712Z,84.20
2019-02-25T08:21:36.232Z,83.00
2019-02-25T08:24:00.573Z,82.90
2019-02-25T08:26:14.062Z,83.20
2019-02-25T08:28:29.704Z,82.80
2019-02-25T08:30:37.841Z,82.70
2019-02-25T08:32:48.401Z,82.50
2019-02-25T08:48:44.513Z,80.10
2019-02-25T08:50:46.196Z,80.70
2019-02-25T08:52:47.990Z,78.90
2019-02-25T08:54:49.838Z,79.30
2019-02-25T08:56:51.624Z,79.10
2019-02-25T08:58:53.523Z,80.00
2019-02-25T09:00:55.337Z,79.30
2019-02-25T09:02:57.032Z,79.80
2019-02-25T09:04:58.733Z,79.70
2019-02-25T09:07:00.550Z,78.60
2019-02-25T09:09:04.107Z,78.60
2019-02-25T09:11:13.950Z,79.10
2019-02-25T09:13:09.541Z,79.10
2019-02-25T09:15:11.528Z,79.70
2019-02-25T09:17:13.222Z,79.70
2019-02-25T09:19:15.022Z,80.00
2019-02-25T09:21:16.713Z,79.80
2019-02-25T09:23:18.409Z,79.50
2019-02-25T09:25:20.141Z,79.00
2019-02-25T09:27:21.842Z,76.80
2019-02-25T09:29:23.551Z,75.70
2019-02-25T09:31:25.262Z,76.60
2019-02-25T09:33:26.960Z,77.10
2019-02-25T09:35:28.657Z,77.20
2019-02-25T09:37:30.354Z,76.00
2019-02-25T09:39:32.057Z,75.10
2019-02-25T09:41:34.005Z,74.40
2019-02-25T09:43:35.688Z,74.20
2019-02-25T09:45:37.378Z,72.80
2019-02-25T09:47:39.261Z,72.30
2019-02-25T09:49:40.989Z,72.00
2019-02-25T09:51:42.697Z,71.10
2019-02-25T09:53:44.704Z,70.90
2019-02-25T09:55:46.505Z,71.60
2019-02-25T09:57:48.196Z,71.60
2019-02-25T09:59:49.901Z,70.90
2019-02-25T10:01:51.620Z,71.50
2019-02-25T10:03:53.348Z,71.40
2019-02-25T10:05:55.029Z,71.50
2019-02-25T10:07:56.725Z,71.60
2019-02-25T10:09:58.484Z,68.80
2019-02-25T10:12:00.183Z,66.40
2019-02-25T10:14:01.868Z,66.70
2019-02-25T10:16:03.693Z,67.40
2019-02-25T10:18:05.401Z,66.20
2019-02-25T10:20:07.761Z,65.80
2019-02-25T10:22:09.448Z,66.50
2019-02-25T10:24:11.147Z,64.80
2019-02-25T10:26:13.084Z,63.80
2019-02-25T10:28:14.905Z,63.10
2019-02-25T10:30:17.309Z,62.50
2019-02-25T10:32:19.137Z,63.20
2019-02-25T10:34:20.841Z,63.70
2019-02-25T10:36:22.520Z,61.80
2019-02-25T10:38:24.705Z,61.60
2019-02-25T10:40:27.546Z,60.50
2019-02-25T10:42:31.430Z,60.30
2019-02-25T10:44:34.116Z,60.10
2019-02-25T10:46:38.573Z,59.70
2019-02-25T10:48:40.288Z,58.60
2019-02-25T10:50:41.990Z,57.20
2019-02-25T10:52:44.910Z,58.00
2019-02-25T10:54:49.850Z,57.80
2019-02-25T10:56:56.275Z,56.70
2019-02-25T10:59:00.249Z,56.10
2019-02-25T11:01:04.155Z,55.50
2019-02-25T11:03:06.041Z,54.90
2019-02-25T11:05:07.878Z,57.00
2019-02-25T11:07:09.763Z,56.90
2019-02-25T11:09:31.388Z,56.40
2019-02-25T11:11:35.744Z,56.70
2019-02-25T11:13:37.456Z,56.00
2019-02-25T11:15:40.221Z,55.40
2019-02-25T11:17:43.113Z,55.00
2019-02-25T11:19:44.797Z,54.30
2019-02-25T11:21:46.810Z,54.00
2019-02-25T11:23:49.233Z,54.00
2019-02-25T11:25:53.631Z,53.70
2019-02-25T11:27:56.179Z,53.30
2019-02-25T11:29:57.938Z,52.90
2019-02-25T11:31:59.705Z,52.30
2019-02-25T11:34:03.223Z,51.70
2019-02-25T11:36:05.258Z,51.30
2019-02-25T11:38:07.225Z,50.10
2019-02-25T11:40:09.214Z,49.80
2019-02-25T11:42:13.533Z,50.00
2019-02-25T11:44:16.558Z,49.10
2019-02-25T11:46:18.267Z,49.00
2019-02-25T11:48:20.021Z,48.70
2019-02-25T11:50:21.870Z,47.80
2019-02-25T11:52:23.575Z,47.70
2019-02-25T11:54:25.374Z,47.90
2019-02-25T11:56:27.097Z,47.90
2019-02-25T11:58:28.786Z,47.50
2019-02-25T12:00:30.693Z,47.50
2019-02-25T12:02:32.432Z,47.20
2019-02-25T12:04:34.233Z,47.50
2019-02-25T12:06:35.952Z,48.10
2019-02-25T12:08:37.892Z,47.10
2019-02-25T12:10:39.604Z,48.90
2019-02-25T12:12:41.297Z,49.00
2019-02-25T12:14:43.034Z,49.50
2019-02-25T12:16:44.760Z,49.50
2019-02-25T12:18:46.456Z,49.30
2019-02-25T12:20:48.478Z,48.60
2019-02-25T12:22:50.448Z,49.30
2019-02-25T12:24:52.136Z,49.30
2019-02-25T12:26:53.821Z,48.50
2019-02-25T12:28:55.562Z,46.40
2019-02-25T12:30:57.476Z,46.00
2019-02-25T12:32:59.169Z,46.70
2019-02-25T12:35:01.168Z,47.20
2019-02-25T12:37:02.982Z,47.00
2019-02-25T12:39:06.262Z,47.50
2019-02-25T12:41:07.960Z,48.50
2019-02-25T12:43:09.683Z,47.80
2019-02-25T12:45:11.616Z,47.40
2019-02-25T12:47:13.334Z,45.40
2019-02-25T12:49:15.051Z,46.00
2019-02-25T12:51:16.785Z,47.60
2019-02-25T12:53:18.537Z,48.40
2019-02-25T12:55:20.450Z,47.10
2019-02-25T12:57:22.148Z,46.40
2019-02-25T12:59:23.872Z,45.90
2019-02-25T13:01:25.568Z,44.30
2019-02-25T13:03:27.272Z,43.00
2019-02-25T13:05:28.961Z,42.00
2019-02-25T13:07:30.889Z,41.90
2019-02-25T13:09:32.613Z,40.40
2019-02-25T13:11:34.340Z,40.80
2019-02-25T13:13:36.044Z,40.50
2019-02-25T13:15:37.765Z,41.70
2019-02-25T13:17:39.481Z,41.80
2019-02-25T13:19:41.318Z,41.50
2019-02-25T13:21:43.011Z,41.40
2019-02-25T13:23:44.710Z,40.50
2019-02-25T13:25:46.426Z,40.10
2019-02-25T13:27:48.448Z,39.50
2019-02-25T13:29:50.156Z,39.40
2019-02-25T13:31:51.969Z,39.50
2019-02-25T13:33:53.681Z,39.10
2019-02-25T13:35:57.081Z,39.10
2019-02-25T13:37:59.192Z,38.90
2019-02-25T13:40:01.091Z,39.10
2019-02-25T13:42:03.115Z,38.30
2019-02-25T13:44:05.321Z,38.80
2019-02-25T13:46:07.109Z,38.70
2019-02-25T13:48:08.793Z,38.60
2019-02-25T13:50:11.109Z,38.60
2019-02-25T13:52:12.903Z,38.70
2019-02-25T13:54:14.688Z,38.60
2019-02-25T13:56:16.620Z,38.70
2019-02-25T13:58:18.489Z,38.50
2019-02-25T14:00:20.342Z,38.10
2019-02-25T14:02:22.281Z,37.90
2019-02-25T14:04:24.117Z,38.20
2019-02-25T14:06:25.910Z,38.80
2019-02-25T14:08:27.794Z,40.20
2019-02-25T14:10:29.576Z,39.50
2019-02-25T14:12:31.254Z,40.40
2019-02-25T14:14:32.950Z,40.30
2019-02-25T14:16:34.661Z,39.20
2019-02-25T14:18:36.453Z,39.50
2019-02-25T14:20:39.048Z,39.20
2019-02-25T14:22:40.863Z,38.90
2019-02-25T14:24:42.738Z,38.60
2019-02-25T14:26:44.609Z,39.00
2019-02-25T14:28:46.703Z,38.40
2019-02-25T14:30:51.636Z,38.10
2019-02-25T14:32:54.557Z,38.30
2019-02-25T14:34:56.266Z,37.80
2019-02-25T14:36:59.720Z,38.40
2019-02-25T14:39:04.540Z,38.00
2019-02-25T14:41:07.224Z,38.50
2019-02-25T14:43:12.680Z,38.40
2019-02-25T14:45:19.640Z,38.10
2019-02-25T14:47:22.530Z,38.30
2019-02-25T14:49:22.066Z,38.50
2019-02-25T14:51:23.829Z,38.70
2019-02-25T14:53:25.625Z,38.50
2019-02-25T14:55:27.527Z,39.30
2019-02-25T14:57:30.747Z,39.50
2019-02-25T14:59:32.859Z,40.20
2019-02-25T15:01:34.690Z,40.30
2019-02-25T15:03:36.726Z,40.80
2019-02-25T15:05:38.528Z,40.90
2019-02-25T15:07:40.218Z,40.80
2019-02-25T15:09:43.543Z,40.20
2019-02-25T15:11:45.843Z,40.30
2019-02-25T15:13:47.741Z,41.00
2019-02-25T15:15:50.285Z,40.00
2019-02-25T15:17:52.845Z,41.20
2019-02-25T15:19:54.729Z,41.30
2019-02-25T15:21:58.305Z,42.30
2019-02-25T15:24:02.273Z,43.60
2019-02-25T15:26:05.964Z,43.80
2019-02-25T15:28:11.378Z,43.40
2019-02-25T15:30:14.064Z,43.10
2019-02-25T15:32:16.808Z,43.30
2019-02-25T15:34:19.275Z,43.20
2019-02-25T15:36:22.223Z,43.70
2019-02-25T15:38:24.764Z,44.10
2019-02-25T15:40:27.240Z,44.60
2019-02-25T15:42:30.099Z,45.10
2019-02-25T15:44:33.066Z,45.40
2019-02-25T15:46:34.901Z,45.60
2019-02-25T15:48:37.355Z,45.50
2019-02-25T15:50:44.100Z,45.50
2019-02-25T15:52:44.581Z,44.60
2019-02-25T15:54:46.287Z,45.70
2019-02-25T15:56:48.218Z,46.10
2019-02-25T15:58:50.258Z,46.40
2019-02-25T16:00:52.254Z,46.10
2019-02-25T16:02:54.672Z,46.20
2019-02-25T16:04:56.928Z,45.80
2019-02-25T16:07:03.830Z,45.80
2019-02-25T16:09:06.913Z,46.30
2019-02-25T16:11:09.357Z,47.30
2019-02-25T16:13:14.117Z,47.60
2019-02-25T16:15:15.701Z,48.70
2019-02-25T16:17:18.932Z,49.10
2019-02-25T16:19:20.972Z,49.80
2019-02-25T16:21:24.445Z,50.30
2019-02-25T16:23:27.893Z,50.70
2019-02-25T16:25:32.143Z,50.50
2019-02-25T16:27:34.214Z,50.80
2019-02-25T16:29:35.921Z,51.40
2019-02-25T16:31:37.952Z,52.30
2019-02-25T16:33:39.669Z,52.70
2019-02-25T16:35:43.080Z,53.60
2019-02-25T16:37:45.484Z,54.20
2019-02-25T16:39:47.185Z,55.50
2019-02-25T16:41:48.890Z,56.20
2019-02-25T16:43:50.774Z,56.90
2019-02-25T16:45:52.573Z,57.60
2019-02-25T16:47:54.357Z,58.00
2019-02-25T16:49:56.739Z,58.60
2019-02-25T16:52:01.612Z,59.50
2019-02-25T16:54:06.743Z,60.00
2019-02-25T16:56:09.218Z,60.90
2019-02-25T16:58:13.333Z,61.40
2019-02-25T17:00:16.052Z,62.30
2019-02-25T17:02:17.757Z,62.80
2019-02-25T17:04:22.658Z,63.30
2019-02-25T17:06:23.570Z,63.90
2019-02-25T17:08:26.154Z,64.60
2019-02-25T17:10:31.536Z,65.10
2019-02-25T17:12:33.133Z,65.90
2019-02-25T17:14:34.856Z,66.40
2019-02-25T17:16:37.265Z,66.70
2019-02-25T17:18:39.189Z,66.90
2019-02-25T17:20:41.721Z,67.10
2019-02-25T17:22:43.789Z,67.40
2019-02-25T17:24:45.567Z,67.60
2019-02-25T17:26:47.398Z,67.90
2019-02-25T17:28:49.179Z,68.20
2019-02-25T17:30:52.618Z,68.60
2019-02-25T17:32:54.913Z,69.10
2019-02-25T17:34:58.206Z,69.30
2019-02-25T17:37:01.222Z,69.50
2019-02-25T17:39:06.954Z,69.80
2019-02-25T17:41:10.712Z,70.10
2019-02-25T17:43:13.945Z,70.70
2019-02-25T17:45:17.725Z,71.00
2019-02-25T17:47:24.244Z,71.10
2019-02-25T17:49:23.157Z,71.10
2019-02-25T17:51:25.607Z,71.10
2019-02-25T17:53:30.510Z,71.10
2019-02-25T17:55:34.449Z,71.50
2019-02-25T17:57:37.394Z,71.60
2019-02-25T17:59:39.331Z,71.60
2019-02-25T18:01:41.786Z,72.00
2019-02-25T18:03:46.024Z,72.00
2019-02-25T18:05:48.666Z,72.00
2019-02-25T18:07:50.585Z,72.20
2019-02-25T18:09:52.741Z,72.30
2019-02-25T18:11:54.443Z,72.60
2019-02-25T18:13:57.858Z,72.70
2019-02-25T18:15:59.760Z,72.70
2019-02-25T18:18:01.490Z,72.80
2019-02-25T18:20:04.181Z,72.80
2019-02-25T18:22:06.010Z,72.80
2019-02-25T18:24:09.983Z,73.00
2019-02-25T18:26:12.449Z,73.30
2019-02-25T18:28:17.509Z,73.60
2019-02-25T18:30:20.220Z,73.60
2019-02-25T18:32:22.264Z,73.80
2019-02-25T18:34:24.080Z,74.00
2019-02-25T18:36:27.085Z,74.20
2019-02-25T18:38:31.281Z,74.40
2019-02-25T18:40:35.589Z,74.50
2019-02-25T18:42:38.671Z,74.80
2019-02-25T18:44:42.752Z,75.10
2019-02-25T18:46:46.126Z,75.70
2019-02-25T18:48:48.844Z,75.90
2019-02-25T18:50:52.727Z,76.30
2019-02-25T18:52:57.214Z,76.90
2019-02-25T18:54:59.879Z,77.50
2019-02-25T18:57:05.354Z,77.50
2019-02-25T18:59:08.725Z,78.30
2019-02-25T19:01:13.003Z,78.60
2019-02-25T19:03:14.895Z,79.20
2019-02-25T19:05:16.693Z,79.40
2019-02-25T19:07:18.874Z,79.50
2019-02-25T19:09:22.752Z,79.80
2019-02-25T19:11:25.934Z,80.30
2019-02-25T19:13:29.934Z,81.00
2019-02-25T19:15:32.145Z,81.00
2019-02-25T19:17:34.056Z,81.30
2019-02-25T19:19:38.130Z,81.70
2019-02-25T19:21:39.653Z,81.60
2019-02-25T19:23:43.653Z,81.80
2019-02-25T19:25:45.522Z,81.90
2019-02-25T19:27:49.574Z,81.90
2019-02-25T19:29:51.540Z,81.90
2019-02-25T19:31:56.426Z,81.70
2019-02-25T19:34:00.435Z,82.20
2019-02-25T19:36:04.646Z,82.70
2019-02-25T19:38:07.858Z,82.80
2019-02-25T19:40:14.932Z,82.90
2019-02-25T19:42:18.151Z,83.00
2019-02-25T19:44:21.181Z,83.20
2019-02-25T19:46:23.125Z,83.10
2019-02-25T19:48:28.674Z,82.90
2019-02-25T19:50:30.429Z,83.10
2019-02-25T19:52:34.887Z,85.10
2019-02-25T19:54:38.481Z,86.00
2019-02-25T19:56:40.813Z,83.80
2019-02-25T19:58:42.806Z,83.10
2019-02-25T20:00:44.670Z,83.20
2019-02-25T20:02:48.031Z,83.40
2019-02-25T20:04:51.924Z,83.60
2019-02-25T20:06:55.595Z,83.90
2019-02-25T20:08:58.292Z,84.30
2019-02-25T20:11:01.232Z,84.90
2019-02-25T20:13:05.719Z,85.50
2019-02-25T20:15:11.344Z,86.10
2019-02-25T20:17:13.700Z,86.00
2019-02-25T20:19:16.812Z,85.60
2019-02-25T20:21:20.152Z,85.30
2019-02-25T20:23:24.456Z,85.10
2019-02-25T20:25:28.273Z,84.90
2019-02-25T20:27:30.137Z,85.00
2019-02-25T20:29:33.758Z,85.10
2019-02-25T20:31:35.568Z,85.10
2019-02-25T20:33:39.099Z,85.10
2019-02-25T20:35:40.897Z,85.20
2019-02-25T20:37:42.853Z,84.90
2019-02-25T20:39:45.072Z,84.80
2019-02-25T20:41:49.849Z,84.50
2019-02-25T20:43:53.954Z,84.30
2019-02-25T20:45:56.368Z,84.30
2019-02-25T20:47:59.687Z,84.60
2019-02-25T20:50:03.777Z,84.70
2019-02-25T20:52:06.465Z,84.70
2019-02-25T20:54:08.932Z,84.90
2019-02-25T20:56:12.069Z,84.90
2019-02-25T20:58:14.462Z,84.90
2019-02-25T21:00:19.914Z,84.80
2019-02-25T21:02:21.670Z,84.90
2019-02-25T21:04:25.138Z,84.70
2019-02-25T21:06:26.831Z,84.70
2019-02-25T21:08:28.552Z,84.70
2019-02-25T21:10:32.748Z,84.90
2019-02-25T21:12:33.853Z,85.00
2019-02-25T21:14:36.164Z,84.80
2019-02-25T21:16:39.244Z,84.90
2019-02-25T21:18:40.937Z,85.40
2019-02-25T21:20:43.485Z,85.50
2019-02-25T21:22:46.629Z,85.50
2019-02-25T21:24:49.506Z,86.40
2019-02-25T21:26:55.220Z,86.80
2019-02-25T21:28:57.927Z,86.90
2019-02-25T21:30:59.289Z,87.00
2019-02-25T21:33:02.062Z,86.90
2019-02-25T21:35:05.096Z,86.70
2019-02-25T21:37:06.901Z,86.70
2019-02-25T21:39:12.265Z,86.60
2019-02-25T21:41:15.478Z,86.50
2019-02-25T21:43:18.697Z,86.60
2019-02-25T21:45:22.453Z,86.70
2019-02-25T21:47:26.435Z,86.60
2019-02-25T21:49:30.863Z,86.70
2019-02-25T21:51:34.779Z,86.40
2019-02-25T21:53:36.454Z,86.60
2019-02-25T21:55:38.179Z,86.60
2019-02-25T21:57:39.858Z,86.60
2019-02-25T21:59:41.725Z,86.50
2019-02-25T22:01:43.448Z,86.50
2019-02-25T22:03:48.008Z,86.90
2019-02-25T22:05:49.485Z,87.00
2019-02-25T22:07:54.744Z,87.10
2019-02-25T22:09:56.731Z,87.10
2019-02-25T22:11:58.980Z,87.20
2019-02-25T22:14:00.780Z,87.30
2019-02-25T22:16:03.541Z,87.30
2019-02-25T22:18:08.597Z,87.30
2019-02-25T22:20:12.173Z,87.60
2019-02-25T22:22:14.804Z,87.60
2019-02-25T22:24:16.619Z,87.70
2019-02-25T22:26:18.828Z,87.60
2019-02-25T22:28:20.635Z,88.30
2019-02-25T22:30:22.717Z,89.50
2019-02-25T22:32:24.786Z,91.10
2019-02-25T22:34:26.713Z,92.40
2019-02-25T22:36:28.623Z,93.60
2019-02-25T22:38:30.718Z,94.40
2019-02-25T22:40:34.343Z,94.70
2019-02-25T22:42:36.404Z,94.40
2019-02-25T22:44:38.234Z,94.60
2019-02-25T22:46:41.710Z,95.00
2019-02-25T22:48:45.493Z,96.00
2019-02-25T22:50:51.241Z,96.80
2019-02-25T22:52:58.104Z,95.40
2019-02-25T22:54:55.227Z,95.50
2019-02-25T22:56:57.212Z,94.80
2019-02-25T22:59:00.480Z,94.20
2019-02-25T23:01:08.592Z,93.90
2019-02-25T23:03:11.365Z,94.40
2019-02-25T23:05:16.785Z,95.20
2019-02-25T23:07:20.184Z,95.60
2019-02-25T23:09:23.388Z,96.40
2019-02-25T23:11:27.567Z,97.10
2019-02-25T23:13:30.338Z,98.30
2019-02-25T23:15:33.420Z,98.30
2019-02-25T23:17:37.474Z,98.30
2019-02-25T23:19:40.891Z,98.30
2019-02-25T23:21:43.060Z,98.30
2019-02-25T23:23:44.872Z,98.30
2019-02-25T23:25:47.407Z,98.30
2019-02-25T23:27:51.672Z,98.30
2019-02-25T23:29:54.389Z,98.30
2019-02-25T23:31:56.193Z,98.30
2019-02-25T23:33:57.905Z,98.30
2019-02-25T23:35:59.609Z,98.30
2019-02-25T23:38:01.309Z,98.30
2019-02-25T23:40:06.746Z,98.30
2019-02-25T23:42:09.182Z,98.30
2019-02-25T23:44:12.642Z,98.30
2019-02-25T23:46:14.380Z,98.30
2019-02-25T23:48:16.101Z,98.30
2019-02-25T23:50:17.909Z,98.30
2019-02-25T23:52:19.682Z,98.30
2019-02-25T23:54:23.279Z,98.30
2019-02-25T23:56:27.315Z,98.30
2019-02-25T23:58:29.186Z,98.30
